KDLH/DLH METAR and TAF weather

Enter ICAO airport designator
Station Type Date Time Source
KDLH METAR 2019/06/16 05:55 UTC NOAA

KDLH 160555Z 07011KT 10SM OVC080 11/03 A2989 RMK AO2 RAE33 SLP125 P0000 60000 T01060033 10150 20106 401720089 50000


Station Type Date Time Source
KDLH Decoded METAR 2019/06/16 05:55 UTC NOAA

Duluth, Duluth International Airport, MN, United States (KDLH) 46-50-34N 092-13-34W 435M
Jun 16, 2019 - 01:55 AM EDT / 2019.06.16 0555 UTC
Wind: from the ENE (070 degrees) at 13 MPH (11 KT):0
Visibility: 10 mile(s):0
Sky conditions: overcast
Precipitation last hour: A trace
Temperature: 51.1 F (10.6 C)
Dew Point: 37.9 F (3.3 C)
Relative Humidity: 60%
Pressure (altimeter): 29.89 in. Hg (1012 hPa)
Pressure tendency: 0.00 inches (0.0 hPa) higher than three hours ago
ob: KDLH 160555Z 07011KT 10SM OVC080 11/03 A2989 RMK AO2 RAE33 SLP125 P0000 60000 T01060033 10150 20106 401720089 50000
cycle: 6

Station Type Date Time Source
KDLH TAF 2019/06/16 06:27 UTC NOAA

TAF KDLH 160524Z 1606/1706 08008KT P6SM -RA OVC080
FM160900 08006KT P6SM VCSH OVC060
FM161200 09008KT P6SM BKN050
FM162000 09009KT P6SM BKN060

Example: see airport list